Search for airport 
image banner adimage banner adimage banner ad
image banner ad

CA58 - Emanuel Medical Center

Located in Turlock, United States

ICAO - CA58, IATA -

Data provided by Airmate  

General information

Coordinates: N37°30'45" W120°50'21"
Elevation is 174 feet MSL.
Magnetic variation is 16° East
View others Airports in California

Operational data

Special qualification required
Current time UTC:
Current local time:
METAR: KMOD 150953Z AUTO 31013KT 10SM CLR 16/08 A3003 RMK AO2 SLP166 T01610078
TAF: KMOD 150532Z 1506/1606 33012KT P6SM SKC FM160000 32015G20KT P6SM SKC FM160400 32009KT P6SM SKC
View NOTAMs / SUP AIP / TFR affecting this airport [VIEW]
Communications frequencies: [VIEW]

Runways:

Airport contact information

Address: Turlock United States

Satellite view of CA58